Terminal Aerodrome Forecast
Issued by NWS Topeka, KS

Home | Current Version | Previous Version | Text Only | Print | Product List | Glossary Off
Versions: 1 2 3 4 5 6 7 8 9 10 11 12 13 14 15 16 17 18 19

000
FTUS43 KTOP 241700
TAFTOP
TAF
KTOP 241720Z 2418/2518 16012G18KT P6SM OVC017
     FM242200 16014G22KT P6SM SCT020 BKN035
      TEMPO 2502/2506 1SM TSRA BKN022CB
     FM250600 18006KT P6SM VCTS OVC025CB
     FM251200 28010KT P6SM BKN050=

USA.gov is the U.S. government's official web portal to all federal, state and local government web resources and services.